sensor_id;sensor_type;location;lat;lon;timestamp;pressure;altitude;pressure_sealevel;temperature;humidity
56334;BME280;42240;53.626;55.886;2023-03-14T00:00:52;77549.56;;;-145.10;100.00
56334;BME280;42240;53.626;55.886;2023-03-14T00:02:26;77547.59;;;-145.10;100.00
56334;BME280;42240;53.626;55.886;2023-03-14T00:04:00;77551.53;;;-145.10;100.00
56334;BME280;42240;53.626;55.886;2023-03-14T00:05:33;77604.94;;;-145.10;100.00
56334;BME280;42240;53.626;55.886;2023-03-14T00:07:07;77573.31;;;-145.10;100.00
56334;BME280;42240;53.626;55.886;2023-03-14T00:08:41;77577.25;;;-145.10;100.00
56334;BME280;42240;53.626;55.886;2023-03-14T00:10:15;77575.28;;;-145.10;100.00
56334;BME280;42240;53.626;55.886;2023-03-14T00:11:48;77585.16;;;-145.10;100.00
56334;BME280;42240;53.626;55.886;2023-03-14T00:13:21;77589.13;;;-145.10;100.00
56334;BME280;42240;53.626;55.886;2023-03-14T00:14:54;77593.09;;;-145.10;100.00
56334;BME280;42240;53.626;55.886;2023-03-14T00:16:27;77604.94;;;-145.10;100.00
56334;BME280;42240;53.626;55.886;2023-03-14T00:18:00;77707.81;;;-145.10;100.00
56334;BME280;42240;53.626;55.886;2023-03-14T00:19:33;77604.94;;;-145.10;100.00
56334;BME280;42240;53.626;55.886;2023-03-14T00:21:08;77604.94;;;-145.10;100.00
56334;BME280;42240;53.626;55.886;2023-03-14T00:22:41;77620.78;;;-145.10;100.00
56334;BME280;42240;53.626;55.886;2023-03-14T00:24:14;77628.69;;;-145.10;100.00
56334;BME280;42240;53.626;55.886;2023-03-14T00:25:48;77642.53;;;-145.10;100.00
56334;BME280;42240;53.626;55.886;2023-03-14T00:27:21;77632.63;;;-145.10;100.00
56334;BME280;42240;53.626;55.886;2023-03-14T00:28:54;77638.56;;;-145.10;100.00
56334;BME280;42240;53.626;55.886;2023-03-14T00:30:27;77644.50;;;-145.10;100.00
56334;BME280;42240;53.626;55.886;2023-03-14T00:32:00;77648.47;;;-145.10;100.00
56334;BME280;42240;53.626;55.886;2023-03-14T00:33:34;77638.56;;;-145.10;100.00
56334;BME280;42240;53.626;55.886;2023-03-14T00:35:08;77654.41;;;-145.10;100.00
56334;BME280;42240;53.626;55.886;2023-03-14T00:36:41;77656.38;;;-145.10;100.00
56334;BME280;42240;53.626;55.886;2023-03-14T00:38:14;77660.34;;;-145.10;100.00
56334;BME280;42240;53.626;55.886;2023-03-14T00:39:47;77668.25;;;-145.10;100.00
56334;BME280;42240;53.626;55.886;2023-03-14T00:41:22;77654.41;;;-145.10;100.00
56334;BME280;42240;53.626;55.886;2023-03-14T00:42:56;77674.19;;;-145.10;100.00
56334;BME280;42240;53.626;55.886;2023-03-14T00:44:31;77684.06;;;-145.10;100.00
56334;BME280;42240;53.626;55.886;2023-03-14T00:46:05;77676.16;;;-145.10;100.00
56334;BME280;42240;53.626;55.886;2023-03-14T00:47:38;77688.03;;;-145.10;100.00
56334;BME280;42240;53.626;55.886;2023-03-14T00:49:12;77693.97;;;-145.10;100.00
56334;BME280;42240;53.626;55.886;2023-03-14T00:50:46;77697.91;;;-145.10;100.00
56334;BME280;42240;53.626;55.886;2023-03-14T00:52:19;77693.97;;;-145.10;100.00
56334;BME280;42240;53.626;55.886;2023-03-14T00:53:53;77699.88;;;-145.10;100.00
56334;BME280;42240;53.626;55.886;2023-03-14T00:55:26;77691.97;;;-145.10;100.00
56334;BME280;42240;53.626;55.886;2023-03-14T00:56:59;77690.00;;;-145.10;100.00
56334;BME280;42240;53.626;55.886;2023-03-14T00:58:32;77688.03;;;-145.10;100.00
56334;BME280;42240;53.626;55.886;2023-03-14T01:00:05;77690.00;;;-145.10;100.00
56334;BME280;42240;53.626;55.886;2023-03-14T01:01:40;77703.84;;;-145.10;100.00
56334;BME280;42240;53.626;55.886;2023-03-14T01:03:15;77695.94;;;-145.10;100.00
56334;BME280;42240;53.626;55.886;2023-03-14T01:04:49;77703.84;;;-145.10;100.00
56334;BME280;42240;53.626;55.886;2023-03-14T01:06:24;77695.94;;;-145.10;100.00
56334;BME280;42240;53.626;55.886;2023-03-14T01:07:58;77719.66;;;-145.10;100.00
56334;BME280;42240;53.626;55.886;2023-03-14T01:09:31;77719.66;;;-145.10;100.00
56334;BME280;42240;53.626;55.886;2023-03-14T01:11:10;77705.81;;;-145.10;100.00
56334;BME280;42240;53.626;55.886;2023-03-14T01:12:43;77723.63;;;-145.10;100.00
56334;BME280;42240;53.626;55.886;2023-03-14T01:14:16;77717.69;;;-145.10;100.00
56334;BME280;42240;53.626;55.886;2023-03-14T01:15:49;77723.63;;;-145.10;100.00
56334;BME280;42240;53.626;55.886;2023-03-14T01:17:22;77727.59;;;-145.10;100.00
56334;BME280;42240;53.626;55.886;2023-03-14T01:18:55;77733.50;;;-145.10;100.00
56334;BME280;42240;53.626;55.886;2023-03-14T01:20:28;77735.50;;;-145.10;100.00
56334;BME280;42240;53.626;55.886;2023-03-14T01:22:02;77741.44;;;-145.10;100.00
56334;BME280;42240;53.626;55.886;2023-03-14T01:23:35;77751.31;;;-145.10;100.00
56334;BME280;42240;53.626;55.886;2023-03-14T01:25:11;77761.22;;;-145.10;100.00
56334;BME280;42240;53.626;55.886;2023-03-14T01:26:44;77771.09;;;-145.10;100.00
56334;BME280;42240;53.626;55.886;2023-03-14T01:28:17;77790.88;;;-145.10;100.00
56334;BME280;42240;53.626;55.886;2023-03-14T01:29:50;77788.91;;;-145.10;100.00
56334;BME280;42240;53.626;55.886;2023-03-14T01:31:24;77796.81;;;-145.10;100.00
56334;BME280;42240;53.626;55.886;2023-03-14T01:32:57;77808.69;;;-145.10;100.00
56334;BME280;42240;53.626;55.886;2023-03-14T01:34:31;77834.38;;;-145.10;100.00
56334;BME280;42240;53.626;55.886;2023-03-14T01:36:05;77828.47;;;-145.10;100.00
56334;BME280;42240;53.626;55.886;2023-03-14T01:37:39;77840.31;;;-145.10;100.00
56334;BME280;42240;53.626;55.886;2023-03-14T01:39:17;77838.34;;;-145.10;100.00
56334;BME280;42240;53.626;55.886;2023-03-14T01:40:50;77840.31;;;-145.10;100.00
56334;BME280;42240;53.626;55.886;2023-03-14T01:42:23;77860.09;;;-145.10;100.00
56334;BME280;42240;53.626;55.886;2023-03-14T01:43:56;77866.03;;;-145.10;100.00
56334;BME280;42240;53.626;55.886;2023-03-14T01:47:45;77907.56;;;-145.10;100.00
56334;BME280;42240;53.626;55.886;2023-03-14T01:49:31;77903.63;;;-145.10;100.00
56334;BME280;42240;53.626;55.886;2023-03-14T01:53:15;77939.22;;;-145.10;100.00
56334;BME280;42240;53.626;55.886;2023-03-14T01:55:06;77939.22;;;-145.10;100.00
56334;BME280;42240;53.626;55.886;2023-03-14T01:56:46;77953.06;;;-145.10;100.00
56334;BME280;42240;53.626;55.886;2023-03-14T01:58:20;77976.81;;;-145.10;100.00
56334;BME280;42240;53.626;55.886;2023-03-14T01:59:57;77984.72;;;-145.10;100.00
56334;BME280;42240;53.626;55.886;2023-03-14T02:01:31;78000.53;;;-145.10;100.00
56334;BME280;42240;53.626;55.886;2023-03-14T02:03:11;77988.69;;;-145.10;100.00
56334;BME280;42240;53.626;55.886;2023-03-14T02:04:47;78002.53;;;-145.10;100.00
56334;BME280;42240;53.626;55.886;2023-03-14T02:06:27;78016.38;;;-145.10;100.00
56334;BME280;42240;53.626;55.886;2023-03-14T02:08:08;78032.19;;;-145.10;100.00
56334;BME280;42240;53.626;55.886;2023-03-14T02:09:49;78040.09;;;-145.10;100.00
56334;BME280;42240;53.626;55.886;2023-03-14T02:11:29;78020.31;;;-145.10;100.00
56334;BME280;42240;53.626;55.886;2023-03-14T02:13:12;78028.25;;;-145.10;100.00
56334;BME280;42240;53.626;55.886;2023-03-14T02:14:55;78016.38;;;-145.10;100.00
56334;BME280;42240;53.626;55.886;2023-03-14T02:16:48;78034.19;;;-145.10;100.00
56334;BME280;42240;53.626;55.886;2023-03-14T02:18:45;78034.19;;;-145.10;100.00
56334;BME280;42240;53.626;55.886;2023-03-14T02:21:19;78032.19;;;-145.10;100.00
56334;BME280;42240;53.626;55.886;2023-03-14T02:22:56;78050.00;;;-145.10;100.00
56334;BME280;42240;53.626;55.886;2023-03-14T02:26:43;78038.13;;;-145.10;100.00
56334;BME280;42240;53.626;55.886;2023-03-14T02:28:18;78057.91;;;-145.10;100.00
56334;BME280;42240;53.626;55.886;2023-03-14T02:30:15;78051.97;;;-145.10;100.00
56334;BME280;42240;53.626;55.886;2023-03-14T02:31:51;78069.78;;;-145.10;100.00
56334;BME280;42240;53.626;55.886;2023-03-14T02:33:24;78087.59;;;-145.10;100.00
56334;BME280;42240;53.626;55.886;2023-03-14T02:35:00;78077.69;;;-145.10;100.00
56334;BME280;42240;53.626;55.886;2023-03-14T02:36:36;78085.59;;;-145.10;100.00
56334;BME280;42240;53.626;55.886;2023-03-14T02:38:35;78075.72;;;-145.10;100.00
56334;BME280;42240;53.626;55.886;2023-03-14T02:40:11;78083.63;;;-145.10;100.00
56334;BME280;42240;53.626;55.886;2023-03-14T02:41:44;78095.50;;;-145.10;100.00
56334;BME280;42240;53.626;55.886;2023-03-14T02:43:18;78099.44;;;-145.10;100.00
56334;BME280;42240;53.626;55.886;2023-03-14T02:46:51;78107.38;;;-145.10;100.00
56334;BME280;42240;53.626;55.886;2023-03-14T02:48:36;78142.97;;;-145.10;100.00
56334;BME280;42240;53.626;55.886;2023-03-14T02:50:20;78164.72;;;-145.10;100.00
56334;BME280;42240;53.626;55.886;2023-03-14T02:51:54;78129.13;;;-145.10;100.00
56334;BME280;42240;53.626;55.886;2023-03-14T02:53:32;78131.09;;;-145.10;100.00
56334;BME280;42240;53.626;55.886;2023-03-14T02:55:11;78144.94;;;-145.10;100.00
56334;BME280;42240;53.626;55.886;2023-03-14T02:56:47;78146.94;;;-145.10;100.00
56334;BME280;42240;53.626;55.886;2023-03-14T02:58:21;78269.56;;;-145.10;100.00
56334;BME280;42240;53.626;55.886;2023-03-14T03:00:00;78144.94;;;-145.10;100.00
56334;BME280;42240;53.626;55.886;2023-03-14T03:01:38;78162.75;;;-145.10;100.00
56334;BME280;42240;53.626;55.886;2023-03-14T03:03:12;78166.72;;;-145.10;100.00
56334;BME280;42240;53.626;55.886;2023-03-14T03:04:45;78158.78;;;-145.10;100.00
56334;BME280;42240;53.626;55.886;2023-03-14T03:06:21;78162.75;;;-145.10;100.00
56334;BME280;42240;53.626;55.886;2023-03-14T03:07:54;78166.72;;;-145.10;100.00
56334;BME280;42240;53.626;55.886;2023-03-14T03:09:29;78170.66;;;-145.10;100.00
56334;BME280;42240;53.626;55.886;2023-03-14T03:11:03;78176.59;;;-145.10;100.00
56334;BME280;42240;53.626;55.886;2023-03-14T03:12:38;78164.72;;;-145.10;100.00
56334;BME280;42240;53.626;55.886;2023-03-14T03:14:11;78154.84;;;-145.10;100.00
56334;BME280;42240;53.626;55.886;2023-03-14T03:15:44;78146.94;;;-145.10;100.00
56334;BME280;42240;53.626;55.886;2023-03-14T03:17:17;78141.00;;;-145.10;100.00
56334;BME280;42240;53.626;55.886;2023-03-14T03:18:50;78133.09;;;-145.10;100.00
56334;BME280;42240;53.626;55.886;2023-03-14T03:20:25;78129.13;;;-145.10;100.00
56334;BME280;42240;53.626;55.886;2023-03-14T03:21:58;78127.16;;;-145.10;100.00
56334;BME280;42240;53.626;55.886;2023-03-14T03:23:31;78135.06;;;-145.10;100.00
56334;BME280;42240;53.626;55.886;2023-03-14T03:25:06;78119.22;;;-145.10;100.00
56334;BME280;42240;53.626;55.886;2023-03-14T03:26:39;78247.81;;;-145.10;100.00
56334;BME280;42240;53.626;55.886;2023-03-14T03:28:14;78129.13;;;-145.10;100.00
56334;BME280;42240;53.626;55.886;2023-03-14T03:29:48;78123.19;;;-145.10;100.00
56334;BME280;42240;53.626;55.886;2023-03-14T03:31:21;78198.34;;;-145.10;100.00
56334;BME280;42240;53.626;55.886;2023-03-14T03:32:54;78121.22;;;-145.10;100.00
56334;BME280;42240;53.626;55.886;2023-03-14T03:34:28;78135.06;;;-145.10;100.00
56334;BME280;42240;53.626;55.886;2023-03-14T03:36:02;78146.94;;;-145.10;100.00
56334;BME280;42240;53.626;55.886;2023-03-14T03:37:40;78158.78;;;-145.10;100.00
56334;BME280;42240;53.626;55.886;2023-03-14T03:39:13;78156.81;;;-145.10;100.00
56334;BME280;42240;53.626;55.886;2023-03-14T03:40:46;78158.78;;;-145.10;100.00
56334;BME280;42240;53.626;55.886;2023-03-14T03:42:19;78160.78;;;-145.10;100.00
56334;BME280;42240;53.626;55.886;2023-03-14T03:43:53;78156.81;;;-145.10;100.00
56334;BME280;42240;53.626;55.886;2023-03-14T03:45:27;78162.75;;;-145.10;100.00
56334;BME280;42240;53.626;55.886;2023-03-14T03:47:01;78158.78;;;-145.10;100.00
56334;BME280;42240;53.626;55.886;2023-03-14T03:48:35;78146.94;;;-145.10;100.00
56334;BME280;42240;53.626;55.886;2023-03-14T03:50:10;78148.91;;;-145.10;100.00
56334;BME280;42240;53.626;55.886;2023-03-14T03:51:43;78142.97;;;-145.10;100.00
56334;BME280;42240;53.626;55.886;2023-03-14T03:53:16;78158.78;;;-145.10;100.00
56334;BME280;42240;53.626;55.886;2023-03-14T03:55:07;78162.75;;;-145.10;100.00
56334;BME280;42240;53.626;55.886;2023-03-14T03:56:40;78144.94;;;-145.10;100.00
56334;BME280;42240;53.626;55.886;2023-03-14T03:58:13;78125.16;;;-145.10;100.00
56334;BME280;42240;53.626;55.886;2023-03-14T03:59:46;78109.34;;;-145.10;100.00
56334;BME280;42240;53.626;55.886;2023-03-14T04:01:20;78125.16;;;-145.10;100.00
56334;BME280;42240;53.626;55.886;2023-03-14T04:02:56;78123.19;;;-145.10;100.00
56334;BME280;42240;53.626;55.886;2023-03-14T04:04:29;78083.63;;;-145.10;100.00
56334;BME280;42240;53.626;55.886;2023-03-14T04:06:09;78053.97;;;-145.10;100.00
56334;BME280;42240;53.626;55.886;2023-03-14T04:07:43;78067.81;;;-145.10;100.00
56334;BME280;42240;53.626;55.886;2023-03-14T04:09:21;78046.03;;;-145.10;100.00
56334;BME280;42240;53.626;55.886;2023-03-14T04:11:10;78036.16;;;-145.10;100.00
56334;BME280;42240;53.626;55.886;2023-03-14T04:13:05;77978.78;;;-145.10;100.00
56334;BME280;42240;53.626;55.886;2023-03-14T04:14:40;77968.91;;;-145.10;100.00
56334;BME280;42240;53.626;55.886;2023-03-14T04:16:24;77964.94;;;-145.10;100.00
56334;BME280;42240;53.626;55.886;2023-03-14T04:18:03;77992.63;;;-145.10;100.00
56334;BME280;42240;53.626;55.886;2023-03-14T04:19:36;77980.78;;;-145.10;100.00
56334;BME280;42240;53.626;55.886;2023-03-14T04:21:10;77858.13;;;-145.10;100.00
56334;BME280;42240;53.626;55.886;2023-03-14T04:22:53;77769.13;;;-145.10;96.65
56334;BME280;42240;53.626;55.886;2023-03-14T04:24:26;77602.97;;;-145.10;96.06
56334;BME280;42240;53.626;55.886;2023-03-14T04:26:01;77561.44;;;-145.10;85.38
56334;BME280;42240;53.626;55.886;2023-03-14T04:27:36;77361.69;;;-145.10;86.11
56334;BME280;42240;53.626;55.886;2023-03-14T04:29:16;77339.91;;;-145.10;74.14
56334;BME280;42240;53.626;55.886;2023-03-14T04:30:50;77185.66;;;-145.10;73.27
56334;BME280;42240;53.626;55.886;2023-03-14T04:32:27;77181.69;;;-145.10;62.67
56334;BME280;42240;53.626;55.886;2023-03-14T04:34:01;77078.88;;;-145.10;63.79
56334;BME280;42240;53.626;55.886;2023-03-14T04:35:40;77007.66;;;-145.10;59.47
56334;BME280;42240;53.626;55.886;2023-03-14T04:37:16;76902.84;;;-145.10;57.21
56334;BME280;42240;53.626;55.886;2023-03-14T04:38:49;76811.88;;;-145.10;54.41
56334;BME280;42240;53.626;55.886;2023-03-14T04:40:25;76798.03;;;-145.10;50.58
56334;BME280;42240;53.626;55.886;2023-03-14T04:42:04;76726.84;;;-145.10;50.75
56334;BME280;42240;53.626;55.886;2023-03-14T04:43:37;76715.00;;;-145.10;51.02
56334;BME280;42240;53.626;55.886;2023-03-14T04:45:13;76620.06;;;-145.10;51.48
56334;BME280;42240;53.626;55.886;2023-03-14T04:46:47;76499.47;;;-145.10;50.30
56334;BME280;42240;53.626;55.886;2023-03-14T04:48:21;76426.28;;;-145.10;49.93
56334;BME280;42240;53.626;55.886;2023-03-14T04:49:54;76513.28;;;-145.10;48.54
56334;BME280;42240;53.626;55.886;2023-03-14T04:51:29;76529.13;;;-145.10;47.25
56334;BME280;42240;53.626;55.886;2023-03-14T04:53:02;76461.88;;;-145.10;47.15
56334;BME280;42240;53.626;55.886;2023-03-14T04:54:35;76434.19;;;-145.10;46.21
56334;BME280;42240;53.626;55.886;2023-03-14T04:56:09;76442.13;;;-145.10;45.01
56334;BME280;42240;53.626;55.886;2023-03-14T04:57:44;76404.53;;;-145.10;45.38
56334;BME280;42240;53.626;55.886;2023-03-14T04:59:17;76289.88;;;-145.10;44.56
56334;BME280;42240;53.626;55.886;2023-03-14T05:00:50;76281.97;;;-145.10;41.81
56334;BME280;42240;53.626;55.886;2023-03-14T05:02:45;76285.91;;;-145.10;41.86
56334;BME280;42240;53.626;55.886;2023-03-14T05:04:38;76161.34;;;-145.10;41.14
56334;BME280;42240;53.626;55.886;2023-03-14T05:06:40;76177.16;;;-145.10;39.97
56334;BME280;42240;53.626;55.886;2023-03-14T05:08:27;76086.22;;;-145.10;39.24
56334;BME280;42240;53.626;55.886;2023-03-14T05:10:21;76042.72;;;-145.10;38.56
56334;BME280;42240;53.626;55.886;2023-03-14T05:12:20;76030.84;;;-145.10;37.51
56334;BME280;42240;53.626;55.886;2023-03-14T05:14:11;75999.22;;;-145.10;36.64
56334;BME280;42240;53.626;55.886;2023-03-14T05:16:07;76050.63;;;-145.10;34.45
56334;BME280;42240;53.626;55.886;2023-03-14T05:17:56;75959.69;;;-145.10;35.23
56334;BME280;42240;53.626;55.886;2023-03-14T05:19:52;75965.59;;;-145.10;34.91
56334;BME280;42240;53.626;55.886;2023-03-14T05:21:54;75983.41;;;-145.10;33.94
56334;BME280;42240;53.626;55.886;2023-03-14T05:23:45;75916.19;;;-145.10;34.23
56334;BME280;42240;53.626;55.886;2023-03-14T05:25:39;75906.28;;;-145.10;33.28
56334;BME280;42240;53.626;55.886;2023-03-14T05:27:35;75959.69;;;-145.10;33.46
56334;BME280;42240;53.626;55.886;2023-03-14T05:29:28;75860.81;;;-145.10;33.47
56334;BME280;42240;53.626;55.886;2023-03-14T05:31:24;75920.13;;;-145.10;33.19
56334;BME280;42240;53.626;55.886;2023-03-14T05:33:23;75829.19;;;-145.10;33.03
56334;BME280;42240;53.626;55.886;2023-03-14T05:35:22;75831.16;;;-145.10;32.21
56334;BME280;42240;53.626;55.886;2023-03-14T05:37:18;75845.00;;;-145.10;32.51
56334;BME280;42240;53.626;55.886;2023-03-14T05:39:02;75813.38;;;-145.10;32.13
56334;BME280;42240;53.626;55.886;2023-03-14T05:41:02;75882.56;;;-145.10;31.65
56334;BME280;42240;53.626;55.886;2023-03-14T05:42:58;75864.78;;;-145.10;31.91
56334;BME280;42240;53.626;55.886;2023-03-14T05:44:50;75914.19;;;-145.10;30.80
56334;BME280;42240;53.626;55.886;2023-03-14T05:46:43;75868.72;;;-145.10;31.67
56334;BME280;42240;53.626;55.886;2023-03-14T05:48:28;75888.50;;;-145.10;31.44
56334;BME280;42240;53.626;55.886;2023-03-14T05:50:21;75943.88;;;-145.10;31.22
56334;BME280;42240;53.626;55.886;2023-03-14T05:52:13;75904.31;;;-145.10;30.66
56334;BME280;42240;53.626;55.886;2023-03-14T05:54:05;75854.91;;;-145.10;31.56
56334;BME280;42240;53.626;55.886;2023-03-14T05:55:56;75920.13;;;-145.10;31.28
56334;BME280;42240;53.626;55.886;2023-03-14T05:57:58;75937.94;;;-145.10;31.58
56334;BME280;42240;53.626;55.886;2023-03-14T05:59:51;75894.44;;;-145.10;31.60
56334;BME280;42240;53.626;55.886;2023-03-14T06:01:53;76009.09;;;-145.10;30.27
56334;BME280;42240;53.626;55.886;2023-03-14T06:03:29;75884.56;;;-145.10;31.45
56334;BME280;42240;53.626;55.886;2023-03-14T06:05:03;75924.09;;;-145.10;31.47
56334;BME280;42240;53.626;55.886;2023-03-14T06:06:35;75864.78;;;-145.10;30.98
56334;BME280;42240;53.626;55.886;2023-03-14T06:08:08;75943.88;;;-145.10;30.46
56334;BME280;42240;53.626;55.886;2023-03-14T06:09:41;75943.88;;;-145.10;30.86
56334;BME280;42240;53.626;55.886;2023-03-14T06:11:14;76001.19;;;-145.10;30.59
56334;BME280;42240;53.626;55.886;2023-03-14T06:12:47;76042.72;;;-145.10;31.15
56334;BME280;42240;53.626;55.886;2023-03-14T06:14:20;76198.91;;;-145.10;31.64
56334;BME280;42240;53.626;55.886;2023-03-14T06:15:54;76058.53;;;-145.10;31.78
56334;BME280;42240;53.626;55.886;2023-03-14T06:17:27;76220.66;;;-145.10;32.48
56334;BME280;42240;53.626;55.886;2023-03-14T06:19:07;76177.16;;;-145.10;32.43
56334;BME280;42240;53.626;55.886;2023-03-14T06:20:41;76185.06;;;-145.10;32.06
56334;BME280;42240;53.626;55.886;2023-03-14T06:22:24;76191.00;;;-145.10;32.18
56334;BME280;42240;53.626;55.886;2023-03-14T06:23:59;76161.34;;;-145.10;32.24
56334;BME280;42240;53.626;55.886;2023-03-14T06:25:35;76105.97;;;-145.10;32.10
56334;BME280;42240;53.626;55.886;2023-03-14T06:27:08;76090.16;;;-145.10;31.89
56334;BME280;42240;53.626;55.886;2023-03-14T06:28:41;76129.72;;;-145.10;31.97
56334;BME280;42240;53.626;55.886;2023-03-14T06:30:15;76200.88;;;-145.10;32.18
56334;BME280;42240;53.626;55.886;2023-03-14T06:31:48;76078.31;;;-145.10;32.69
56334;BME280;42240;53.626;55.886;2023-03-14T06:33:24;76232.53;;;-145.10;32.28
56334;BME280;42240;53.626;55.886;2023-03-14T06:34:57;76191.00;;;-145.10;32.80
56334;BME280;42240;53.626;55.886;2023-03-14T06:36:37;76359.06;;;-145.10;33.17
56334;BME280;42240;53.626;55.886;2023-03-14T06:38:11;76250.31;;;-145.10;33.04
56334;BME280;42240;53.626;55.886;2023-03-14T06:39:44;76252.28;;;-145.10;33.41
56334;BME280;42240;53.626;55.886;2023-03-14T06:41:26;76329.41;;;-145.10;33.81
56334;BME280;42240;53.626;55.886;2023-03-14T06:43:01;76426.28;;;-145.10;34.71
56334;BME280;42240;53.626;55.886;2023-03-14T06:44:36;76491.53;;;-145.10;34.68
56334;BME280;42240;53.626;55.886;2023-03-14T06:46:09;76568.66;;;-145.10;34.91
56334;BME280;42240;53.626;55.886;2023-03-14T06:47:44;76600.31;;;-145.10;35.76
56334;BME280;42240;53.626;55.886;2023-03-14T06:49:18;76604.25;;;-145.10;36.25
56334;BME280;42240;53.626;55.886;2023-03-14T06:50:54;76620.06;;;-145.10;36.46
56334;BME280;42240;53.626;55.886;2023-03-14T06:52:27;76659.63;;;-145.10;36.37
56334;BME280;42240;53.626;55.886;2023-03-14T06:54:01;76709.06;;;-145.10;36.61
56334;BME280;42240;53.626;55.886;2023-03-14T06:55:34;76675.44;;;-145.10;36.93
56334;BME280;42240;53.626;55.886;2023-03-14T06:57:08;76709.06;;;-145.10;37.29
56334;BME280;42240;53.626;55.886;2023-03-14T06:58:40;76813.88;;;-145.10;37.58
56334;BME280;42240;53.626;55.886;2023-03-14T07:00:16;76784.22;;;-145.10;38.40
56334;BME280;42240;53.626;55.886;2023-03-14T07:01:49;76764.44;;;-145.10;38.39
56334;BME280;42240;53.626;55.886;2023-03-14T07:03:23;76841.56;;;-145.10;38.51
56334;BME280;42240;53.626;55.886;2023-03-14T07:04:59;76821.78;;;-145.10;38.62
56334;BME280;42240;53.626;55.886;2023-03-14T07:06:33;76877.16;;;-145.10;38.71
56334;BME280;42240;53.626;55.886;2023-03-14T07:08:07;76877.16;;;-145.10;39.75
56334;BME280;42240;53.626;55.886;2023-03-14T07:09:41;76898.91;;;-145.10;39.80
56334;BME280;42240;53.626;55.886;2023-03-14T07:11:14;76889.00;;;-145.10;39.50
56334;BME280;42240;53.626;55.886;2023-03-14T07:12:47;76894.94;;;-145.10;39.63
56334;BME280;42240;53.626;55.886;2023-03-14T07:14:20;76948.34;;;-145.10;40.27
56334;BME280;42240;53.626;55.886;2023-03-14T07:15:54;76924.59;;;-145.10;40.29
56334;BME280;42240;53.626;55.886;2023-03-14T07:17:28;76950.31;;;-145.10;40.74
56334;BME280;42240;53.626;55.886;2023-03-14T07:19:03;76950.31;;;-145.10;39.93
56334;BME280;42240;53.626;55.886;2023-03-14T07:20:37;76968.13;;;-145.10;40.52
56334;BME280;42240;53.626;55.886;2023-03-14T07:22:11;76938.44;;;-145.10;40.94
56334;BME280;42240;53.626;55.886;2023-03-14T07:23:44;76987.88;;;-145.10;40.67
56334;BME280;42240;53.626;55.886;2023-03-14T07:25:18;77041.28;;;-145.10;41.50
56334;BME280;42240;53.626;55.886;2023-03-14T07:26:51;77037.34;;;-145.10;42.03
56334;BME280;42240;53.626;55.886;2023-03-14T07:28:26;77003.72;;;-145.10;42.26
56334;BME280;42240;53.626;55.886;2023-03-14T07:30:10;77021.50;;;-145.10;42.30
56334;BME280;42240;53.626;55.886;2023-03-14T07:31:43;77021.50;;;-145.10;42.58
56334;BME280;42240;53.626;55.886;2023-03-14T07:33:21;77035.34;;;-145.10;42.69
56334;BME280;42240;53.626;55.886;2023-03-14T07:34:55;77130.28;;;-145.10;42.53
56334;BME280;42240;53.626;55.886;2023-03-14T07:36:29;77134.25;;;-145.10;42.58
56334;BME280;42240;53.626;55.886;2023-03-14T07:38:02;77142.16;;;-145.10;43.03
56334;BME280;42240;53.626;55.886;2023-03-14T07:39:41;77114.47;;;-145.10;43.38
56334;BME280;42240;53.626;55.886;2023-03-14T07:41:21;77114.47;;;-145.10;43.44
56334;BME280;42240;53.626;55.886;2023-03-14T07:43:14;77181.69;;;-145.10;43.53
56334;BME280;42240;53.626;55.886;2023-03-14T07:44:51;77090.72;;;-145.10;43.80
56334;BME280;42240;53.626;55.886;2023-03-14T07:46:25;77154.00;;;-145.10;43.70
56334;BME280;42240;53.626;55.886;2023-03-14T07:47:58;77169.84;;;-145.10;43.83
56334;BME280;42240;53.626;55.886;2023-03-14T07:49:31;77169.84;;;-145.10;43.29
56334;BME280;42240;53.626;55.886;2023-03-14T07:51:04;77138.19;;;-145.10;43.96
56334;BME280;42240;53.626;55.886;2023-03-14T07:52:37;77148.09;;;-145.10;43.55
56334;BME280;42240;53.626;55.886;2023-03-14T07:54:11;77150.06;;;-145.10;44.48
56334;BME280;42240;53.626;55.886;2023-03-14T07:55:44;77144.13;;;-145.10;43.49
56334;BME280;42240;53.626;55.886;2023-03-14T07:57:20;77175.78;;;-145.10;44.40
56334;BME280;42240;53.626;55.886;2023-03-14T07:58:53;77169.84;;;-145.10;44.75
56334;BME280;42240;53.626;55.886;2023-03-14T08:00:26;77173.78;;;-145.10;44.00
56334;BME280;42240;53.626;55.886;2023-03-14T08:01:59;77126.31;;;-145.10;44.38
56334;BME280;42240;53.626;55.886;2023-03-14T08:03:33;77193.56;;;-145.10;44.66
56334;BME280;42240;53.626;55.886;2023-03-14T08:05:07;77094.69;;;-145.10;44.00
56334;BME280;42240;53.626;55.886;2023-03-14T08:06:40;77138.19;;;-145.10;43.92
56334;BME280;42240;53.626;55.886;2023-03-14T08:08:13;77078.88;;;-145.10;43.93
56334;BME280;42240;53.626;55.886;2023-03-14T08:09:47;77082.81;;;-145.10;43.27
56334;BME280;42240;53.626;55.886;2023-03-14T08:11:20;77090.72;;;-145.10;43.68
56334;BME280;42240;53.626;55.886;2023-03-14T08:12:54;77118.41;;;-145.10;43.60
56334;BME280;42240;53.626;55.886;2023-03-14T08:14:28;77094.69;;;-145.10;43.54
56334;BME280;42240;53.626;55.886;2023-03-14T08:16:03;77159.94;;;-145.10;43.73
56334;BME280;42240;53.626;55.886;2023-03-14T08:17:37;77167.84;;;-145.10;44.10
56334;BME280;42240;53.626;55.886;2023-03-14T08:19:09;77094.69;;;-145.10;43.65
56334;BME280;42240;53.626;55.886;2023-03-14T08:20:42;77114.47;;;-145.10;43.62
56334;BME280;42240;53.626;55.886;2023-03-14T08:22:15;77146.09;;;-145.10;43.26